Time;durP1;ratioP1;P1;durP2;ratioP2;P2;SDS_P1;SDS_P2;PMS_P1;PMS_P2;Temp;Humidity;BMP_temperature;BMP_pressure;BME280_temperature;BME280_humidity;BME280_pressure;Samples;Min_cycle;Max_cycle;Signal;HPM_P1;HPM_P2
2020/12/17 00:01:12;;;;;;;10.98;7.17;;;;;;;-1.17;84.13;101424.96;1728068;82;21202;-71
2020/12/17 00:03:40;;;;;;;11.80;7.47;;;;;;;-1.17;84.14;101432.30;1706301;83;21197;-71
2020/12/17 00:06:12;;;;;;;13.03;8.48;;;;;;;-1.15;84.13;101429.70;1706488;82;21059;-71
2020/12/17 00:08:40;;;;;;;9.28;6.08;;;;;;;-1.11;84.12;101433.10;1651701;86;21620;-70
2020/12/17 00:11:07;;;;;;;13.08;8.60;;;;;;;-1.09;84.14;101429.60;1708377;82;21910;-70
2020/12/17 00:13:35;;;;;;;10.80;6.35;;;;;;;-1.08;84.10;101430.45;1726669;82;21096;-70
2020/12/17 00:16:03;;;;;;;13.90;8.85;;;;;;;-1.08;84.11;101422.68;1707840;82;21126;-70
2020/12/17 00:18:34;;;;;;;19.45;10.58;;;;;;;-1.08;84.10;101422.23;1723717;82;21415;-70
2020/12/17 00:21:02;;;;;;;15.40;8.73;;;;;;;-1.06;84.11;101419.61;1712456;82;21127;-70
2020/12/17 00:23:34;;;;;;;14.00;8.78;;;;;;;-1.06;84.09;101414.02;1708192;82;22061;-70
2020/12/17 00:26:02;;;;;;;17.67;10.13;;;;;;;-1.03;84.11;101422.19;1671290;85;21150;-71
2020/12/17 00:28:30;;;;;;;11.85;6.80;;;;;;;-1.03;84.10;101422.19;1720182;82;21161;-70
2020/12/17 00:30:59;;;;;;;11.22;6.72;;;;;;;-1.03;84.08;101421.74;1748216;82;21059;-70
2020/12/17 00:33:26;;;;;;;8.25;5.10;;;;;;;-1.05;84.05;101425.25;1731721;82;21067;-71
2020/12/17 00:35:54;;;;;;;14.03;7.90;;;;;;;-1.07;83.98;101428.28;1749622;82;22063;-70
2020/12/17 00:38:24;;;;;;;14.53;8.20;;;;;;;-1.08;84.00;101427.42;1749489;82;21131;-70
2020/12/17 00:40:54;;;;;;;13.85;8.60;;;;;;;-1.07;84.00;101429.57;1748080;82;21129;-71
2020/12/17 00:43:22;;;;;;;13.15;8.53;;;;;;;-1.07;84.00;101432.16;1749581;82;21157;-71
2020/12/17 00:45:50;;;;;;;13.88;8.13;;;;;;;-1.06;84.02;101435.17;1725356;82;21164;-71
2020/12/17 00:48:19;;;;;;;13.58;7.97;;;;;;;-1.04;84.03;101428.25;1738538;82;22956;-70
2020/12/17 00:50:46;;;;;;;12.37;7.08;;;;;;;-1.01;84.03;101430.79;1733932;82;21070;-71
2020/12/17 00:53:14;;;;;;;14.45;8.65;;;;;;;-1.00;84.03;101422.12;1748505;82;21383;-71
2020/12/17 00:55:42;;;;;;;15.00;8.98;;;;;;;-1.00;84.04;101414.34;1734449;82;21126;-71
2020/12/17 00:58:11;;;;;;;11.30;7.75;;;;;;;-1.00;84.01;101417.80;1682854;84;21569;-71
2020/12/17 01:00:38;;;;;;;16.60;9.50;;;;;;;-0.98;84.06;101413.44;1699524;82;22065;-71
2020/12/17 01:03:06;;;;;;;12.23;7.30;;;;;;;-0.96;84.05;101409.55;1749378;82;21138;-70
2020/12/17 01:05:34;;;;;;;14.47;8.03;;;;;;;-0.95;84.03;101410.82;1719967;82;21125;-70
2020/12/17 01:08:02;;;;;;;12.15;7.65;;;;;;;-0.98;84.01;101404.36;1728637;82;21114;-70
2020/12/17 01:10:29;;;;;;;11.60;6.95;;;;;;;-0.95;84.01;101413.41;1725502;82;21157;-71
2020/12/17 01:12:57;;;;;;;11.45;6.92;;;;;;;-0.94;83.98;101416.86;1747125;82;22032;-70
2020/12/17 01:15:25;;;;;;;6.90;4.30;;;;;;;-0.93;83.96;101417.28;1747444;82;21078;-70
2020/12/17 01:17:53;;;;;;;8.50;5.67;;;;;;;-0.94;83.96;101411.23;1748545;82;21106;-70
2020/12/17 01:20:22;;;;;;;10.35;6.40;;;;;;;-0.91;83.93;101411.62;1727439;82;22629;-71
2020/12/17 01:22:53;;;;;;;9.93;6.58;;;;;;;-0.94;83.92;101406.05;1727328;82;21141;-70
2020/12/17 01:25:23;;;;;;;12.10;7.25;;;;;;;-0.93;83.91;101401.27;1713932;82;23050;-70
2020/12/17 01:27:50;;;;;;;11.88;7.30;;;;;;;-0.93;83.87;101407.76;1647024;86;21145;-70
2020/12/17 01:30:18;;;;;;;11.70;7.37;;;;;;;-0.93;83.88;101400.42;1713409;82;21126;-70
2020/12/17 01:32:46;;;;;;;9.23;6.40;;;;;;;-0.91;83.86;101400.80;1643717;86;21145;-70
2020/12/17 01:35:14;;;;;;;8.45;5.50;;;;;;;-0.88;83.87;101405.93;1706532;82;21070;-70
2020/12/17 01:37:42;;;;;;;9.95;6.37;;;;;;;-0.84;83.85;101402.87;1709363;82;21909;-70
2020/12/17 01:40:10;;;;;;;9.18;6.35;;;;;;;-0.84;83.83;101398.12;1735576;82;21161;-70
2020/12/17 01:42:38;;;;;;;7.37;5.25;;;;;;;-0.84;83.82;101405.46;1732069;82;21597;-70
2020/12/17 01:45:06;;;;;;;7.55;5.40;;;;;;;-0.84;83.77;101403.31;1703391;82;21063;-70
2020/12/17 01:47:40;;;;;;;10.03;7.25;;;;;;;-0.86;83.77;101402.05;1722030;82;21123;-71
2020/12/17 01:50:08;;;;;;;7.55;5.55;;;;;;;-0.87;83.77;101405.08;1711997;82;21966;-70
2020/12/17 01:52:36;;;;;;;7.17;4.92;;;;;;;-0.86;83.73;101398.16;1731958;82;21557;-70
2020/12/17 01:55:04;;;;;;;8.38;6.12;;;;;;;-0.84;83.72;101401.57;1726525;82;21150;-70
2020/12/17 01:57:35;;;;;;;9.35;6.28;;;;;;;-0.85;83.70;101395.97;1716841;82;21110;-70
2020/12/17 02:00:07;;;;;;;8.68;6.15;;;;;;;-0.84;83.69;101398.98;1707342;82;21114;-70
2020/12/17 02:02:36;;;;;;;7.12;5.30;;;;;;;-0.84;83.68;101400.27;1712061;82;21901;-70
2020/12/17 02:05:06;;;;;;;10.32;6.78;;;;;;;-0.83;83.69;101392.91;1724028;82;21084;-69
2020/12/17 02:07:36;;;;;;;11.63;7.37;;;;;;;-0.83;83.65;101389.45;1719100;82;21079;-70
2020/12/17 02:10:03;;;;;;;15.40;8.78;;;;;;;-0.83;83.67;101382.53;1720137;82;21162;-70
2020/12/17 02:12:48;;;;;;;12.05;7.37;;;;;;;-0.82;83.66;101382.94;1722041;82;21122;-70
2020/12/17 02:15:18;;;;;;;11.22;7.55;;;;;;;-0.82;83.67;101380.34;1715917;82;22076;-70
2020/12/17 02:17:48;;;;;;;11.73;6.90;;;;;;;-0.80;83.64;101375.13;1735634;82;21498;-70
2020/12/17 02:20:16;;;;;;;10.72;6.83;;;;;;;-0.79;83.66;101379.44;1733660;82;21197;-70
2020/12/17 02:22:44;;;;;;;11.33;7.80;;;;;;;-0.78;83.66;101381.14;1734360;82;21145;-70
2020/12/17 02:25:14;;;;;;;14.40;10.95;;;;;;;-0.78;83.64;101391.08;1702405;82;21135;-71
2020/12/17 02:27:42;;;;;;;15.28;11.25;;;;;;;-0.77;83.64;101384.15;1718656;82;21553;-70
2020/12/17 02:30:11;;;;;;;10.90;7.90;;;;;;;-0.78;83.62;101385.03;1706387;82;21566;-71
2020/12/17 02:32:40;;;;;;;11.25;7.92;;;;;;;-0.78;83.65;101385.03;1711369;82;21178;-70
2020/12/17 02:35:09;;;;;;;8.08;6.50;;;;;;;-0.77;83.62;101381.55;1727308;82;21062;-71
2020/12/17 02:37:37;;;;;;;10.15;6.80;;;;;;;-0.75;83.64;101390.19;1730969;82;21174;-71
2020/12/17 02:40:05;;;;;;;10.98;7.00;;;;;;;-0.74;83.62;101379.78;1706164;82;22052;-70
2020/12/17 02:42:33;;;;;;;10.58;5.97;;;;;;;-0.73;83.63;101380.20;1732138;82;21558;-70
2020/12/17 02:45:00;;;;;;;10.23;6.40;;;;;;;-0.74;83.60;101381.08;1725777;82;21155;-70
2020/12/17 02:47:28;;;;;;;12.53;7.12;;;;;;;-0.76;83.62;101393.23;1722037;82;21115;-71
2020/12/17 02:49:56;;;;;;;11.63;7.25;;;;;;;-0.79;83.61;101397.15;1707594;82;21388;-70
2020/12/17 02:52:25;;;;;;;12.75;7.17;;;;;;;-0.78;83.65;101395.41;1734754;82;21095;-70
2020/12/17 02:54:53;;;;;;;11.45;7.33;;;;;;;-0.77;83.64;101394.11;1713915;82;21146;-70
2020/12/17 02:57:21;;;;;;;10.32;6.83;;;;;;;-0.75;83.64;101381.11;1732015;82;21110;-70
2020/12/17 02:59:50;;;;;;;12.88;7.60;;;;;;;-0.73;83.66;101398.36;1728705;82;21161;-70
2020/12/17 03:02:21;;;;;;;9.13;5.50;;;;;;;-0.73;83.65;101395.77;1706496;82;21414;-70
2020/12/17 03:04:50;;;;;;;10.35;6.65;;;;;;;-0.74;83.67;101384.98;1708390;82;22089;-70
2020/12/17 03:07:18;;;;;;;11.18;6.85;;;;;;;-0.75;83.67;101385.86;1642133;86;21128;-70
2020/12/17 03:09:47;;;;;;;9.70;6.37;;;;;;;-0.77;83.68;101386.33;1706969;82;21506;-70
2020/12/17 03:12:16;;;;;;;10.18;6.70;;;;;;;-0.78;83.70;101390.22;1660362;86;21589;-70
2020/12/17 03:14:43;;;;;;;8.30;5.65;;;;;;;-0.78;83.70;101383.73;1686839;83;21533;-71
2020/12/17 03:17:11;;;;;;;9.33;6.37;;;;;;;-0.79;83.71;101387.22;1717799;82;21545;-70
2020/12/17 03:19:43;;;;;;;11.05;6.47;;;;;;;-0.80;83.73;101377.28;1733168;82;21032;-70
2020/12/17 03:22:11;;;;;;;9.30;6.08;;;;;;;-0.80;83.77;101379.02;1734474;82;21130;-70
2020/12/17 03:24:38;;;;;;;9.40;5.90;;;;;;;-0.79;83.78;101372.95;1715805;82;21078;-70
2020/12/17 03:27:06;;;;;;;7.60;4.97;;;;;;;-0.78;83.80;101385.89;1666465;85;21183;-70
2020/12/17 03:29:34;;;;;;;7.72;5.08;;;;;;;-0.76;83.81;101383.30;1722373;82;22069;-70
2020/12/17 03:32:01;;;;;;;9.03;5.45;;;;;;;-0.79;83.78;101383.33;1720526;82;21141;-71
2020/12/17 03:34:29;;;;;;;7.20;4.87;;;;;;;-0.81;83.80;101376.88;1726181;82;21067;-71
2020/12/17 03:36:57;;;;;;;6.05;4.42;;;;;;;-0.80;83.79;101367.34;1748465;82;21081;-71
2020/12/17 03:39:26;;;;;;;5.37;3.50;;;;;;;-0.82;83.82;101358.30;1738639;82;21350;-70
2020/12/17 03:41:54;;;;;;;5.17;3.75;;;;;;;-0.84;83.83;101360.08;1731352;82;21915;-71
2020/12/17 03:44:22;;;;;;;6.90;4.78;;;;;;;-0.87;83.84;101351.02;1720238;82;21126;-70
2020/12/17 03:46:49;;;;;;;7.00;4.83;;;;;;;-0.91;83.85;101349.38;1719949;82;21075;-70
2020/12/17 03:49:18;;;;;;;8.50;5.40;;;;;;;-0.94;83.83;101353.33;1734274;82;21154;-70
2020/12/17 03:51:46;;;;;;;6.28;4.55;;;;;;;-0.94;83.88;101363.70;1743543;82;21074;-70
2020/12/17 03:54:14;;;;;;;6.85;4.90;;;;;;;-0.94;83.89;101363.70;1737414;82;23020;-70
2020/12/17 03:56:42;;;;;;;8.53;4.90;;;;;;;-0.94;83.90;101362.41;1736405;82;21113;-70
2020/12/17 03:59:09;;;;;;;8.25;4.90;;;;;;;-0.94;83.92;101365.00;1725187;82;21071;-70
2020/12/17 04:01:38;;;;;;;8.00;5.80;;;;;;;-0.95;83.93;101356.80;1736767;82;21071;-69
2020/12/17 04:04:07;;;;;;;10.05;5.28;;;;;;;-0.94;83.95;101362.41;1739162;82;21324;-70
2020/12/17 04:06:36;;;;;;;9.10;5.83;;;;;;;-0.93;83.95;101366.27;1727914;82;22043;-69
2020/12/17 04:09:03;;;;;;;10.93;7.80;;;;;;;-0.91;83.97;101367.53;1747213;82;21121;-70
2020/12/17 04:11:36;;;;;;;9.40;6.25;;;;;;;-0.91;83.96;101359.30;1745764;82;21114;-70
2020/12/17 04:14:04;;;;;;;10.10;7.72;;;;;;;-0.91;83.97;101364.94;1746846;82;21149;-69
2020/12/17 04:16:33;;;;;;;11.45;8.03;;;;;;;-0.92;83.95;101367.12;1749707;82;21118;-70
2020/12/17 04:19:01;;;;;;;11.83;8.63;;;;;;;-0.92;83.97;101371.01;1748861;82;22125;-70
2020/12/17 04:21:28;;;;;;;12.10;8.68;;;;;;;-0.92;84.00;101364.52;1731723;82;21205;-71
2020/12/17 04:23:56;;;;;;;8.95;6.70;;;;;;;-0.91;84.01;101358.45;1722895;82;21079;-70
2020/12/17 04:26:26;;;;;;;10.13;7.30;;;;;;;-0.91;83.98;101354.12;1712586;82;21066;-71
2020/12/17 04:28:53;;;;;;;9.20;6.95;;;;;;;-0.91;84.02;101358.45;1660553;86;21410;-70
2020/12/17 04:31:21;;;;;;;9.50;7.00;;;;;;;-0.90;84.02;101356.27;1722928;82;22021;-71
2020/12/17 04:33:49;;;;;;;9.50;6.62;;;;;;;-0.88;84.02;101355.36;1714622;82;21094;-70
2020/12/17 04:36:18;;;;;;;7.97;5.58;;;;;;;-0.88;84.03;101356.66;1707043;82;21060;-71
2020/12/17 04:38:45;;;;;;;9.08;6.62;;;;;;;-0.89;84.02;101348.46;1721095;82;21075;-70
2020/12/17 04:41:17;;;;;;;11.60;7.37;;;;;;;-0.90;84.02;101354.98;1723971;82;21209;-70
2020/12/17 04:43:45;;;;;;;11.25;7.25;;;;;;;-0.90;84.02;101362.75;1719839;81;22027;-70
2020/12/17 04:46:16;;;;;;;15.68;10.13;;;;;;;-0.92;84.01;101367.97;1735634;82;21083;-70
2020/12/17 04:48:45;;;;;;;12.53;7.67;;;;;;;-0.91;84.01;101372.27;1728236;82;21126;-70
2020/12/17 04:51:14;;;;;;;10.32;7.15;;;;;;;-0.91;84.02;101382.65;1713662;82;21411;-70
2020/12/17 04:53:47;;;;;;;6.85;5.12;;;;;;;-0.90;84.01;101380.91;1708299;82;21118;-71
2020/12/17 04:56:18;;;;;;;8.60;6.58;;;;;;;-0.89;84.02;101382.17;1710059;82;22937;-70
2020/12/17 04:58:49;;;;;;;12.75;9.95;;;;;;;-0.90;84.03;101387.39;1707305;82;21546;-70
2020/12/17 05:01:18;;;;;;;12.63;10.40;;;;;;;-0.88;84.05;101389.52;1717262;82;21071;-69
2020/12/17 05:03:48;;;;;;;14.13;11.05;;;;;;;-0.87;84.05;101393.41;1733542;82;21117;-68
2020/12/17 05:06:22;;;;;;;9.83;7.95;;;;;;;-0.85;84.04;101395.12;1703518;83;21079;-68
2020/12/17 05:08:54;;;;;;;9.93;6.80;;;;;;;-0.85;84.04;101392.52;1711203;82;22771;-69
2020/12/17 05:11:21;;;;;;;11.88;8.60;;;;;;;-0.86;84.03;101396.86;1716572;82;21177;-70
2020/12/17 05:13:49;;;;;;;11.35;6.42;;;;;;;-0.87;84.04;101399.89;1727773;82;21059;-68
2020/12/17 05:16:17;;;;;;;13.32;8.13;;;;;;;-0.84;84.02;101405.91;1731441;82;21350;-69
2020/12/17 05:18:45;;;;;;;13.58;8.98;;;;;;;-0.84;84.04;101407.20;1702448;82;21075;-73
2020/12/17 05:21:14;;;;;;;15.58;8.40;;;;;;;-0.85;84.04;101405.05;1734952;82;22064;-70
2020/12/17 05:23:44;;;;;;;12.47;8.98;;;;;;;-0.84;84.05;101408.05;1709438;82;21186;-70
2020/12/17 05:26:13;;;;;;;13.38;8.85;;;;;;;-0.82;84.03;101413.21;1724765;82;21110;-69
2020/12/17 05:28:41;;;;;;;12.68;8.53;;;;;;;-0.82;84.06;101406.28;1733326;82;21444;-68
2020/12/17 05:31:20;;;;;;;10.15;6.05;;;;;;;-0.80;84.04;101410.15;1749670;81;21050;-71
2020/12/17 05:33:49;;;;;;;12.15;8.60;;;;;;;-0.79;84.03;101414.45;1749632;82;22071;-71
2020/12/17 05:36:24;;;;;;;13.53;8.05;;;;;;;-0.81;84.03;101417.52;1745459;82;21134;-69
2020/12/17 05:39:06;;;;;;;13.95;9.10;;;;;;;-0.81;84.03;101420.97;1706533;82;21612;-69
2020/12/17 05:41:43;;;;;;;12.43;8.55;;;;;;;-0.78;84.03;101414.86;1855293;76;29098;-70
2020/12/17 05:44:26;;;;;;;9.75;6.37;;;;;;;-0.81;84.04;101419.67;1813400;78;21103;-68
2020/12/17 05:46:54;;;;;;;10.95;7.87;;;;;;;-0.81;84.04;101422.27;1808599;78;22051;-73
2020/12/17 05:49:28;;;;;;;11.85;8.70;;;;;;;-0.81;84.04;101422.27;1808639;78;21076;-69
2020/12/17 05:52:14;;;;;;;16.27;9.63;;;;;;;-0.79;84.04;101428.72;1808435;78;21131;-69
2020/12/17 05:54:56;;;;;;;12.43;8.55;;;;;;;-0.78;84.06;101431.28;1808505;78;21490;-69
2020/12/17 05:57:24;;;;;;;11.83;9.10;;;;;;;-0.76;84.06;101431.28;1809578;78;21151;-70
2020/12/17 06:02:39;;;;;;;13.60;9.53;;;;;;;-0.69;84.05;101436.33;1890001;76;29140;-70
2020/12/17 06:05:09;;;;;;;12.18;8.78;;;;;;;-0.70;84.06;101438.50;1860853;77;21047;-69
2020/12/17 06:07:50;;;;;;;16.10;10.23;;;;;;;-0.70;84.03;101434.61;1860889;77;21879;-69
2020/12/17 06:10:25;;;;;;;;;;;;;;;-0.70;84.03;101441.10;1862919;77;21181;-69
2020/12/17 06:13:01;;;;;;;15.68;10.13;;;;;;;-0.71;84.01;101444.58;1837156;77;20212;-73
2020/12/17 06:15:30;;;;;;;14.93;9.65;;;;;;;-0.70;84.04;101442.84;1813205;77;21078;-75
2020/12/17 06:18:03;;;;;;;15.05;9.98;;;;;;;-0.68;84.04;101450.16;1820162;78;21075;-71
2020/12/17 06:20:33;;;;;;;13.58;9.63;;;;;;;-0.69;84.04;101448.44;1825722;78;22060;-71
2020/12/17 06:23:05;;;;;;;16.10;10.40;;;;;;;-0.68;84.04;101446.27;1827122;78;21141;-71
2020/12/17 06:25:40;;;;;;;17.60;10.53;;;;;;;-0.66;84.05;101449.27;1827104;78;21047;-71
2020/12/17 06:28:24;;;;;;;19.07;11.30;;;;;;;-0.64;84.07;101448.80;1789653;78;21165;-72
2020/12/17 06:31:06;;;;;;;16.93;9.80;;;;;;;-0.57;84.05;101443.52;1864466;76;28940;-70
2020/12/17 06:33:37;;;;;;;18.82;12.45;;;;;;;-0.62;84.04;101441.84;1826993;78;21103;-72
2020/12/17 06:36:26;;;;;;;18.98;11.03;;;;;;;-0.64;84.03;101457.88;1841603;77;22776;-70
2020/12/17 06:38:54;;;;;;;15.15;9.05;;;;;;;-0.67;84.01;101455.34;1807628;79;21622;-70
2020/12/17 06:41:23;;;;;;;16.55;9.18;;;;;;;-0.69;84.05;101457.08;1817116;78;21161;-69
2020/12/17 06:43:51;;;;;;;16.40;9.25;;;;;;;-0.69;84.06;101455.78;1830418;78;21050;-69
2020/12/17 06:46:30;;;;;;;16.62;10.38;;;;;;;-0.68;84.08;101461.38;1830466;78;21058;-67
2020/12/17 06:49:08;;;;;;;12.33;7.30;;;;;;;-0.62;84.10;101454.81;1889919;75;29026;-67
2020/12/17 06:51:38;;;;;;;16.07;9.60;;;;;;;-0.63;84.11;101452.25;1860930;77;21036;-68
2020/12/17 06:54:22;;;;;;;21.37;12.37;;;;;;;-0.63;84.10;101457.44;1860918;77;22061;-68
2020/12/17 06:57:09;;;;;;;18.30;12.45;;;;;;;-0.63;84.10;101454.41;1860833;77;21114;-68
2020/12/17 06:59:38;;;;;;;13.78;9.38;;;;;;;-0.61;84.12;101459.12;1860333;77;21055;-69
2020/12/17 07:02:06;;;;;;;14.05;8.43;;;;;;;-0.60;84.13;101456.08;1860837;77;21063;-68
2020/12/17 07:04:44;;;;;;;10.63;7.03;;;;;;;-0.60;84.12;101462.12;1859639;77;21052;-68
2020/12/17 07:07:23;;;;;;;16.20;9.43;;;;;;;-0.60;84.14;101460.83;1860884;77;22052;-68
2020/12/17 07:09:56;;;;;;;11.93;8.43;;;;;;;-0.59;84.14;101468.17;1860826;77;21147;-68
2020/12/17 07:12:40;;;;;;;16.93;10.88;;;;;;;-0.60;84.15;101466.02;1844427;77;21063;-67
2020/12/17 07:15:30;;;;;;;;;;;;;;;-0.59;84.17;101472.06;1797350;80;21570;-70
2020/12/17 07:18:21;;;;;;;15.80;10.72;;;;;;;-0.57;84.18;101470.77;1764270;80;20226;-68
2020/12/17 07:21:05;;;;;;;13.32;9.35;;;;;;;-0.55;84.19;101467.26;1866971;75;29069;-69
2020/12/17 07:23:36;;;;;;;10.53;7.58;;;;;;;-0.57;84.20;101472.92;1808504;79;21103;-69
2020/12/17 07:26:15;;;;;;;10.55;7.78;;;;;;;-0.56;84.21;101473.33;1808537;79;22887;-69
2020/12/17 07:28:54;;;;;;;12.18;8.68;;;;;;;-0.56;84.19;101471.18;1808451;78;21071;-69
2020/12/17 07:31:27;;;;;;;10.65;8.10;;;;;;;-0.56;84.19;101466.84;1808548;78;21542;-69
2020/12/17 07:33:55;;;;;;;11.57;7.35;;;;;;;-0.56;84.21;101468.59;1808466;79;21051;-68
2020/12/17 07:36:48;;;;;;;17.90;12.10;;;;;;;-0.57;84.20;101466.88;1808443;79;21087;-68
2020/12/17 07:39:16;;;;;;;14.90;10.10;;;;;;;-0.55;84.19;101475.48;1833071;78;21463;-69
2020/12/17 07:41:44;;;;;;;12.20;8.50;;;;;;;-0.55;84.19;101475.48;1841442;77;21058;-69
2020/12/17 07:44:16;;;;;;;8.18;5.92;;;;;;;-0.54;84.22;101476.75;1839585;78;21059;-68
2020/12/17 07:46:44;;;;;;;10.55;7.12;;;;;;;-0.54;84.20;101475.45;1810420;78;21052;-68
2020/12/17 07:49:28;;;;;;;9.83;6.75;;;;;;;-0.53;84.18;101479.77;1841401;78;21088;-68
2020/12/17 07:51:55;;;;;;;8.75;5.97;;;;;;;-0.50;84.19;101481.00;1814014;78;21865;-70
2020/12/17 07:54:22;;;;;;;9.48;6.70;;;;;;;-0.48;84.22;101479.67;1827876;77;21096;-69
2020/12/17 07:56:52;;;;;;;8.60;5.80;;;;;;;-0.48;84.19;101479.67;1811015;78;21131;-67
2020/12/17 07:59:19;;;;;;;11.35;7.40;;;;;;;-0.48;84.16;101482.27;1787534;78;21140;-68
2020/12/17 08:01:47;;;;;;;11.40;8.80;;;;;;;-0.49;84.15;101476.66;1826040;78;21036;-68
2020/12/17 08:04:15;;;;;;;10.88;6.62;;;;;;;-0.46;84.16;101476.64;1767657;78;21831;-71
2020/12/17 08:06:43;;;;;;;9.55;6.55;;;;;;;-0.45;84.17;101470.56;1841260;78;21107;-70
2020/12/17 08:09:12;;;;;;;10.00;6.80;;;;;;;-0.43;84.17;101475.28;1840840;78;21195;-71
2020/12/17 08:11:55;;;;;;;35.48;21.20;;;;;;;-0.42;84.17;101478.28;1833021;77;21064;-71
2020/12/17 08:14:25;;;;;;;25.60;14.45;;;;;;;-0.42;84.16;101473.95;1799924;79;21133;-67
2020/12/17 08:17:07;;;;;;;18.35;12.47;;;;;;;-0.41;84.16;101474.36;1797859;79;22037;-68
2020/12/17 08:19:35;;;;;;;20.72;14.18;;;;;;;-0.38;84.14;101478.67;1798504;77;21433;-67
2020/12/17 08:22:03;;;;;;;24.43;15.78;;;;;;;-0.39;84.12;101473.03;1800775;79;21104;-69
2020/12/17 12:40:18;;;;;;;22.25;15.90;;;;;;;0.47;85.05;101465.81;1789788;79;29123;-67
2020/12/17 12:42:47;;;;;;;22.35;15.43;;;;;;;0.48;84.96;101469.71;1717967;83;21082;-67
2020/12/17 12:45:16;;;;;;;22.77;16.23;;;;;;;0.49;84.94;101472.72;1747628;82;21493;-65
2020/12/17 12:47:44;;;;;;;22.67;17.40;;;;;;;0.48;84.90;101469.71;1747569;82;21173;-66
2020/12/17 12:50:15;;;;;;;25.15;18.48;;;;;;;0.47;84.86;101467.11;1747674;82;21116;-67
2020/12/17 12:52:43;;;;;;;25.75;19.42;;;;;;;0.46;84.84;101470.16;1747164;82;22232;-67
2020/12/17 12:55:10;;;;;;;25.57;19.77;;;;;;;0.45;84.81;101469.75;1747707;82;21172;-66
2020/12/17 12:57:39;;;;;;;25.10;19.55;;;;;;;0.46;84.79;101466.70;1747743;82;22066;-66
2020/12/17 13:00:06;;;;;;;24.30;17.40;;;;;;;0.49;84.77;101469.27;1747614;81;21113;-67
2020/12/17 13:02:35;;;;;;;32.33;21.33;;;;;;;0.51;84.76;101467.48;1742812;81;21479;-74
2020/12/17 13:05:02;;;;;;;33.53;20.80;;;;;;;0.52;84.74;101467.45;1701699;83;21129;-77
2020/12/17 13:07:30;;;;;;;26.25;14.98;;;;;;;0.51;84.69;101467.03;1725250;83;21600;-72
2020/12/17 13:09:58;;;;;;;20.20;14.05;;;;;;;0.52;84.67;101469.19;1747655;82;21949;-72
2020/12/17 13:12:28;;;;;;;20.17;14.23;;;;;;;0.50;84.63;101478.33;1746612;82;21168;-72
2020/12/17 13:14:59;;;;;;;21.02;14.30;;;;;;;0.49;84.59;101475.31;1747849;82;21382;-71
2020/12/17 13:17:27;;;;;;;39.85;23.57;;;;;;;0.50;84.57;101477.47;1747664;82;21078;-72
2020/12/17 13:19:56;;;;;;;35.05;21.35;;;;;;;0.49;84.54;101476.62;1747604;82;21074;-72
2020/12/17 13:22:24;;;;;;;35.75;23.67;;;;;;;0.49;84.52;101477.91;1747738;82;21887;-72
2020/12/17 13:24:51;;;;;;;34.48;18.95;;;;;;;0.51;84.50;101488.28;1726917;83;21154;-71
2020/12/17 13:27:19;;;;;;;37.95;22.55;;;;;;;0.51;84.51;101484.37;1726701;83;21616;-71
2020/12/17 13:29:48;;;;;;;39.15;23.35;;;;;;;0.51;84.47;101493.48;1700998;83;21081;-71
2020/12/17 13:32:16;;;;;;;40.52;25.30;;;;;;;0.51;84.46;101490.87;1697351;84;21572;-71
2020/12/17 13:34:44;;;;;;;41.88;26.40;;;;;;;0.49;84.41;101490.05;1697479;84;22973;-72
2020/12/17 13:37:11;;;;;;;43.65;25.90;;;;;;;0.47;84.37;101487.46;1697245;84;21176;-74
2020/12/17 13:39:39;;;;;;;45.85;27.70;;;;;;;0.49;84.39;101496.11;1697427;82;21081;-75
2020/12/17 13:42:09;;;;;;;49.48;29.45;;;;;;;0.50;84.37;101489.16;1697137;84;21494;-74
2020/12/17 13:44:38;;;;;;;55.90;32.30;;;;;;;0.50;84.35;101492.62;1695636;84;21081;-71
2020/12/17 13:47:06;;;;;;;56.45;33.25;;;;;;;0.50;84.34;101489.16;1696903;84;21806;-74
2020/12/17 13:49:39;;;;;;;56.65;33.15;;;;;;;0.51;84.33;101493.03;1697028;84;21505;-72
2020/12/17 13:52:09;;;;;;;57.45;31.73;;;;;;;0.51;84.30;101486.53;1696939;84;21336;-71
2020/12/17 13:54:36;;;;;;;61.48;34.30;;;;;;;0.51;84.31;101494.33;1696715;84;21473;-71
2020/12/17 13:57:04;;;;;;;51.73;32.60;;;;;;;0.53;84.29;101494.30;1696919;84;21441;-72
2020/12/17 13:59:32;;;;;;;59.45;32.70;;;;;;;0.52;84.28;101499.08;1696905;84;22955;-71
2020/12/17 14:02:00;;;;;;;53.33;31.90;;;;;;;0.50;84.25;101490.02;1696785;84;21169;-72
2020/12/17 14:04:28;;;;;;;56.48;32.10;;;;;;;0.50;84.25;101487.42;1696854;84;21094;-74
2020/12/17 14:06:59;;;;;;;54.73;32.05;;;;;;;0.51;84.26;101487.83;1697551;84;21216;-71
2020/12/17 14:09:27;;;;;;;56.00;32.83;;;;;;;0.55;84.23;101486.02;1665865;84;21481;-74
2020/12/17 14:11:56;;;;;;;54.15;30.20;;;;;;;0.52;84.22;101490.84;1696807;84;22074;-72
2020/12/17 14:14:24;;;;;;;50.88;28.38;;;;;;;0.50;84.18;101491.32;1696806;84;21165;-73
2020/12/17 14:16:52;;;;;;;55.00;31.87;;;;;;;0.47;84.19;101484.01;1696850;84;21126;-73
2020/12/17 14:19:20;;;;;;;58.38;32.35;;;;;;;0.48;84.18;101492.22;1696816;84;21532;-72
2020/12/17 14:21:52;;;;;;;53.17;30.40;;;;;;;0.48;84.16;101492.22;1696902;84;21094;-73
2020/12/17 14:24:27;;;;;;;49.48;31.17;;;;;;;0.53;84.17;101487.80;1886616;74;29490;-73
2020/12/17 14:26:55;;;;;;;49.42;29.82;;;;;;;0.48;84.13;101489.62;1817636;77;21052;-72
2020/12/17 14:29:23;;;;;;;41.80;26.62;;;;;;;0.47;84.11;101487.46;1816546;79;21889;-73
2020/12/17 14:31:51;;;;;;;52.30;31.07;;;;;;;0.47;84.11;101496.56;1816466;79;21077;-73
2020/12/17 14:34:19;;;;;;;56.92;34.08;;;;;;;0.47;84.07;101495.26;1816545;79;21520;-73
2020/12/17 14:36:48;;;;;;;54.93;32.48;;;;;;;0.48;84.09;101490.91;1816555;79;21034;-73
2020/12/17 14:39:15;;;;;;;57.27;33.50;;;;;;;0.47;84.09;101490.06;1816529;78;21034;-73
2020/12/17 14:41:43;;;;;;;63.25;35.90;;;;;;;0.48;84.10;101494.41;1816499;79;22126;-73
2020/12/17 14:44:10;;;;;;;54.53;32.50;;;;;;;0.48;84.09;101494.81;1820870;77;21114;-73
2020/12/17 14:46:38;;;;;;;64.87;37.15;;;;;;;0.48;84.08;101490.91;1849890;77;21616;-73
2020/12/17 14:49:06;;;;;;;44.73;27.82;;;;;;;0.47;84.04;101504.36;1849750;77;21071;-73
2020/12/17 14:51:34;;;;;;;49.38;31.07;;;;;;;0.46;84.01;101505.25;1849816;77;21533;-71
2020/12/17 14:54:03;;;;;;;49.38;32.63;;;;;;;0.40;83.96;101501.48;1849787;77;22042;-70
2020/12/17 14:56:33;;;;;;;60.38;36.53;;;;;;;0.38;83.94;101501.08;1849631;77;21138;-70
2020/12/17 14:59:02;;;;;;;60.08;36.68;;;;;;;0.37;83.94;101504.13;1849849;77;21123;-69
2020/12/17 15:01:29;;;;;;;60.35;35.65;;;;;;;0.40;83.97;101504.53;1848510;77;21143;-69
2020/12/17 15:03:57;;;;;;;56.58;34.60;;;;;;;0.42;83.98;101508.81;1849777;77;21052;-69
2020/12/17 15:06:25;;;;;;;62.58;37.45;;;;;;;0.43;84.00;101504.02;1849767;77;21951;-70
2020/12/17 15:08:53;;;;;;;58.98;36.68;;;;;;;0.46;84.01;101510.89;1849678;77;21110;-69
2020/12/17 15:11:23;;;;;;;64.82;40.48;;;;;;;0.46;84.00;101506.55;1849801;77;21549;-70
2020/12/17 15:13:51;;;;;;;63.20;39.73;;;;;;;0.45;83.97;101503.54;1849719;77;21137;-70
2020/12/17 15:16:21;;;;;;;56.60;35.63;;;;;;;0.46;83.96;101509.14;1849785;77;21091;-70
2020/12/17 15:18:49;;;;;;;66.97;40.63;;;;;;;0.46;83.95;101510.89;1848503;77;22066;-71
2020/12/17 15:21:18;;;;;;;64.50;38.80;;;;;;;0.42;83.95;101511.85;1849827;77;21075;-70
2020/12/17 15:23:46;;;;;;;66.72;39.90;;;;;;;0.43;83.95;101510.52;1851362;77;21063;-70
2020/12/17 15:26:14;;;;;;;59.13;36.83;;;;;;;0.45;83.93;101506.58;1810104;79;21144;-70
2020/12/17 15:28:42;;;;;;;51.23;33.55;;;;;;;0.46;83.93;101513.05;1776559;79;21580;-71
2020/12/17 15:31:11;;;;;;;59.40;36.60;;;;;;;0.47;83.90;101514.75;1803498;79;23006;-70
2020/12/17 15:33:42;;;;;;;78.07;45.80;;;;;;;0.48;83.91;101516.50;1773141;80;21131;-69
2020/12/17 15:36:11;;;;;;;89.67;50.03;;;;;;;0.48;83.88;101513.89;1765232;80;21441;-70
2020/12/17 15:38:40;;;;;;;82.95;49.90;;;;;;;0.48;83.89;101522.11;1756178;81;21160;-68
2020/12/17 15:41:10;;;;;;;80.67;45.17;;;;;;;0.47;83.89;101521.70;1778192;79;21071;-68
2020/12/17 15:43:37;;;;;;;79.72;44.75;;;;;;;0.46;83.90;101517.39;1783410;79;24172;-69
2020/12/17 15:46:06;;;;;;;77.35;43.02;;;;;;;0.46;83.89;101521.28;1777592;80;21094;-70
2020/12/17 15:48:36;;;;;;;63.00;39.42;;;;;;;0.47;83.88;101525.16;1777665;79;21381;-70
2020/12/17 15:51:06;;;;;;;53.63;32.90;;;;;;;0.49;83.88;101522.55;1778906;78;21220;-72